createdAt,value
2023-03-11T00:00:34.212Z,0.00
2023-03-11T00:01:34.195Z,0.00
2023-03-11T00:02:34.193Z,0.00
2023-03-11T00:03:34.194Z,0.00
2023-03-11T00:04:34.187Z,0.00
2023-03-11T00:05:34.272Z,0.00
2023-03-11T00:06:34.152Z,0.00
2023-03-11T00:07:34.137Z,0.00
2023-03-11T00:08:34.132Z,0.00
2023-03-11T00:09:34.227Z,0.00
2023-03-11T00:10:34.104Z,0.00
2023-03-11T00:11:34.050Z,3.00
2023-03-11T00:12:34.042Z,2.00
2023-03-11T00:13:34.073Z,0.00
2023-03-11T00:14:34.061Z,0.00
2023-03-11T00:15:34.043Z,0.00
2023-03-11T00:16:34.113Z,0.00
2023-03-11T00:17:34.027Z,0.00
2023-03-11T00:18:34.012Z,0.00
2023-03-11T00:19:34.008Z,0.00
2023-03-11T00:20:33.997Z,0.00
2023-03-11T00:21:33.980Z,0.00
2023-03-11T00:22:33.995Z,0.00
2023-03-11T00:23:33.979Z,0.00
2023-03-11T00:24:33.951Z,0.00
2023-03-11T00:25:33.944Z,0.00
2023-03-11T00:26:33.936Z,0.00
2023-03-11T00:27:33.962Z,0.00
2023-03-11T00:28:34.532Z,0.00
2023-03-11T00:29:33.905Z,0.00
2023-03-11T00:30:33.909Z,0.00
2023-03-11T00:31:33.891Z,0.00
2023-03-11T00:32:33.900Z,0.00
2023-03-11T00:33:33.899Z,0.00
2023-03-11T00:34:33.868Z,0.00
2023-03-11T00:35:33.878Z,0.00
2023-03-11T00:36:33.859Z,0.00
2023-03-11T00:37:33.815Z,0.00
2023-03-11T00:38:33.822Z,0.00
2023-03-11T00:39:33.800Z,0.00
2023-03-11T00:40:33.781Z,0.00
2023-03-11T00:41:33.825Z,0.00
2023-03-11T00:42:33.755Z,0.00
2023-03-11T00:43:33.775Z,0.00
2023-03-11T00:44:33.750Z,0.00
2023-03-11T00:45:33.732Z,0.00
2023-03-11T00:46:33.798Z,0.00
2023-03-11T00:47:33.724Z,0.00
2023-03-11T00:48:33.718Z,0.00
2023-03-11T00:49:33.706Z,0.00
2023-03-11T00:50:33.665Z,0.00
2023-03-11T00:51:34.347Z,0.00
2023-03-11T00:52:33.659Z,0.00
2023-03-11T00:53:33.642Z,0.00
2023-03-11T00:54:33.648Z,0.00
2023-03-11T00:55:33.629Z,0.00
2023-03-11T00:56:33.646Z,0.00
2023-03-11T00:57:33.605Z,0.00
2023-03-11T00:58:33.593Z,0.00
2023-03-11T00:59:33.604Z,0.00
2023-03-11T01:00:33.557Z,0.00
2023-03-11T01:01:33.587Z,0.00
2023-03-11T01:02:33.560Z,0.00
2023-03-11T01:03:33.583Z,0.00
2023-03-11T01:04:33.592Z,0.00
2023-03-11T01:05:33.530Z,0.00
2023-03-11T01:06:44.828Z,0.00
2023-03-11T01:07:33.528Z,0.00
2023-03-11T01:08:33.497Z,0.00
2023-03-11T01:09:33.483Z,0.00
2023-03-11T01:10:33.489Z,0.00
2023-03-11T01:11:33.516Z,0.00
2023-03-11T01:12:33.445Z,0.00
2023-03-11T01:13:33.433Z,0.00
2023-03-11T01:14:33.482Z,0.00
2023-03-11T01:15:33.502Z,0.00
2023-03-11T01:16:33.407Z,0.00
2023-03-11T01:17:33.422Z,0.00
2023-03-11T01:18:33.398Z,0.00
2023-03-11T01:19:33.379Z,0.00
2023-03-11T01:20:33.362Z,0.00
2023-03-11T01:21:33.381Z,0.00
2023-03-11T01:22:33.332Z,0.00
2023-03-11T01:23:33.328Z,0.00
2023-03-11T01:24:33.334Z,0.00
2023-03-11T01:25:33.308Z,0.00
2023-03-11T01:26:33.306Z,0.00
2023-03-11T01:27:33.320Z,0.00
2023-03-11T01:28:33.275Z,0.00
2023-03-11T01:29:33.283Z,0.00
2023-03-11T01:30:33.254Z,0.00
2023-03-11T01:31:33.254Z,0.00
2023-03-11T01:32:33.310Z,0.00
2023-03-11T01:33:33.215Z,0.00
2023-03-11T01:34:33.209Z,0.00
2023-03-11T01:35:33.252Z,0.00
2023-03-11T01:36:33.179Z,0.00
2023-03-11T01:37:33.183Z,0.00
2023-03-11T01:38:33.116Z,2.00
2023-03-11T01:39:33.111Z,1.00
2023-03-11T01:40:33.161Z,0.00
2023-03-11T01:41:33.149Z,0.00
2023-03-11T01:42:33.141Z,0.00
2023-03-11T01:43:33.114Z,0.00
2023-03-11T01:44:33.095Z,0.00
2023-03-11T01:45:33.103Z,0.00
2023-03-11T01:46:33.130Z,0.00
2023-03-11T01:47:33.072Z,0.00
2023-03-11T01:48:33.105Z,0.00
2023-03-11T01:49:33.053Z,0.00
2023-03-11T01:50:33.033Z,0.00
2023-03-11T01:51:33.073Z,0.00
2023-03-11T01:52:33.029Z,0.00
2023-03-11T01:53:33.019Z,0.00
2023-03-11T01:54:33.026Z,0.00
2023-03-11T01:55:33.021Z,0.00
2023-03-11T01:56:32.969Z,0.00
2023-03-11T01:57:32.990Z,0.00
2023-03-11T01:58:32.946Z,0.00
2023-03-11T01:59:32.974Z,0.00
2023-03-11T02:00:32.931Z,0.00
2023-03-11T02:01:32.965Z,0.00
2023-03-11T02:02:32.976Z,0.00
2023-03-11T02:03:32.919Z,0.00
2023-03-11T02:04:32.909Z,0.00
2023-03-11T02:05:32.870Z,0.00
2023-03-11T02:06:32.864Z,0.00
2023-03-11T02:07:32.861Z,0.00
2023-03-11T02:08:32.850Z,0.00
2023-03-11T02:09:32.847Z,0.00
2023-03-11T02:10:32.818Z,0.00
2023-03-11T02:11:32.858Z,0.00
2023-03-11T02:12:32.827Z,0.00
2023-03-11T02:13:32.799Z,0.00
2023-03-11T02:14:32.787Z,0.00
2023-03-11T02:15:32.790Z,0.00
2023-03-11T02:16:32.814Z,0.00
2023-03-11T02:17:32.769Z,0.00
2023-03-11T02:18:32.740Z,0.00
2023-03-11T02:19:32.770Z,0.00
2023-03-11T02:20:32.748Z,0.00
2023-03-11T02:21:32.737Z,0.00
2023-03-11T02:22:32.732Z,0.00
2023-03-11T02:23:32.712Z,0.00
2023-03-11T02:24:32.700Z,0.00
2023-03-11T02:25:32.689Z,0.00
2023-03-11T02:26:32.683Z,0.00
2023-03-11T02:27:32.674Z,0.00
2023-03-11T02:28:32.660Z,0.00
2023-03-11T02:29:32.640Z,0.00
2023-03-11T02:30:32.635Z,0.00
2023-03-11T02:31:32.665Z,0.00
2023-03-11T02:32:32.633Z,0.00
2023-03-11T02:33:32.599Z,0.00
2023-03-11T02:34:32.602Z,0.00
2023-03-11T02:35:32.664Z,0.00
2023-03-11T02:36:32.581Z,0.00
2023-03-11T02:37:32.566Z,0.00
2023-03-11T02:38:32.552Z,0.00
2023-03-11T02:39:32.570Z,0.00
2023-03-11T02:40:32.550Z,0.00
2023-03-11T02:41:32.508Z,0.00
2023-03-11T02:42:32.519Z,0.00
2023-03-11T02:43:32.496Z,0.00
2023-03-11T02:44:32.484Z,0.00
2023-03-11T02:45:32.482Z,0.00
2023-03-11T02:46:32.491Z,0.00
2023-03-11T02:47:32.459Z,0.00
2023-03-11T02:48:32.454Z,0.00
2023-03-11T02:49:32.426Z,0.00
2023-03-11T02:50:32.439Z,0.00
2023-03-11T02:51:32.404Z,0.00
2023-03-11T02:52:32.410Z,0.00
2023-03-11T02:53:32.386Z,0.00
2023-03-11T02:54:32.382Z,0.00
2023-03-11T02:55:32.372Z,0.00
2023-03-11T02:56:32.391Z,0.00
2023-03-11T02:57:32.343Z,0.00
2023-03-11T02:58:32.361Z,0.00
2023-03-11T02:59:32.333Z,0.00
2023-03-11T03:00:32.402Z,0.00
2023-03-11T03:01:32.305Z,0.00
2023-03-11T03:02:32.326Z,0.00
2023-03-11T03:03:32.283Z,0.00
2023-03-11T03:04:32.386Z,0.00
2023-03-11T03:05:32.289Z,0.00
2023-03-11T03:06:32.281Z,0.00
2023-03-11T03:07:32.234Z,0.00
2023-03-11T03:08:32.248Z,0.00
2023-03-11T03:09:32.228Z,0.00
2023-03-11T03:10:32.218Z,0.00
2023-03-11T03:11:32.212Z,0.00
2023-03-11T03:12:32.212Z,0.00
2023-03-11T03:13:32.179Z,0.00
2023-03-11T03:14:32.216Z,0.00
2023-03-11T03:15:32.158Z,0.00
2023-03-11T03:16:32.188Z,0.00
2023-03-11T03:17:32.165Z,0.00
2023-03-11T03:18:32.163Z,0.00
2023-03-11T03:19:32.137Z,0.00
2023-03-11T03:20:32.134Z,0.00
2023-03-11T03:21:32.092Z,0.00
2023-03-11T03:22:32.107Z,0.00
2023-03-11T03:23:32.097Z,0.00
2023-03-11T03:24:32.083Z,0.00
2023-03-11T03:25:32.074Z,0.00
2023-03-11T03:26:32.072Z,0.00
2023-03-11T03:27:32.055Z,0.00
2023-03-11T03:28:32.043Z,0.00
2023-03-11T03:29:32.032Z,0.00
2023-03-11T03:30:32.022Z,0.00
2023-03-11T03:31:32.012Z,0.00
2023-03-11T03:32:32.017Z,0.00
2023-03-11T03:33:31.984Z,0.00
2023-03-11T03:34:31.986Z,0.00
2023-03-11T03:35:31.991Z,0.00
2023-03-11T03:36:31.970Z,0.00
2023-03-11T03:37:31.943Z,0.00
2023-03-11T03:38:31.936Z,0.00
2023-03-11T03:39:31.910Z,0.00
2023-03-11T03:40:31.916Z,0.00
2023-03-11T03:41:31.907Z,0.00
2023-03-11T03:42:31.905Z,0.00
2023-03-11T03:43:31.891Z,0.00
2023-03-11T03:44:31.867Z,0.00
2023-03-11T03:45:31.891Z,0.00
2023-03-11T03:46:31.860Z,0.00
2023-03-11T03:47:31.836Z,0.00
2023-03-11T03:48:31.837Z,0.00
2023-03-11T03:49:31.810Z,0.00
2023-03-11T03:50:31.828Z,0.00
2023-03-11T03:51:31.813Z,0.00
2023-03-11T03:52:31.797Z,0.00
2023-03-11T03:53:31.786Z,0.00
2023-03-11T03:54:31.777Z,0.00
2023-03-11T03:55:31.752Z,0.00
2023-03-11T03:56:31.768Z,0.00
2023-03-11T03:57:31.735Z,0.00
2023-03-11T03:58:31.752Z,0.00
2023-03-11T03:59:31.723Z,0.00
2023-03-11T04:00:31.712Z,0.00
2023-03-11T04:01:31.729Z,0.00
2023-03-11T04:02:31.731Z,0.00
2023-03-11T04:03:31.863Z,0.00
2023-03-11T04:04:31.665Z,0.00
2023-03-11T04:05:31.653Z,0.00
2023-03-11T04:06:31.668Z,0.00
2023-03-11T04:07:31.646Z,0.00
2023-03-11T04:08:31.618Z,0.00
2023-03-11T04:09:31.632Z,0.00
2023-03-11T04:10:31.613Z,0.00
2023-03-11T04:11:31.592Z,0.00
2023-03-11T04:12:31.616Z,0.00
2023-03-11T04:13:31.589Z,0.00
2023-03-11T04:14:31.605Z,0.00
2023-03-11T04:15:31.577Z,0.00
2023-03-11T04:16:31.647Z,0.00
2023-03-11T04:17:31.580Z,0.00
2023-03-11T04:18:31.602Z,0.00
2023-03-11T04:19:31.511Z,0.00
2023-03-11T04:20:31.512Z,0.00
2023-03-11T04:21:31.519Z,0.00
2023-03-11T04:22:31.491Z,0.00
2023-03-11T04:23:31.476Z,0.00
2023-03-11T04:24:31.476Z,0.00
2023-03-11T04:25:31.472Z,0.00
2023-03-11T04:26:31.445Z,0.00
2023-03-11T04:27:31.439Z,0.00
2023-03-11T04:28:31.464Z,0.00
2023-03-11T04:29:31.420Z,0.00
2023-03-11T04:30:31.518Z,0.00
2023-03-11T04:31:31.388Z,0.00
2023-03-11T04:32:31.455Z,0.00
2023-03-11T04:33:31.442Z,0.00
2023-03-11T04:34:31.389Z,0.00
2023-03-11T04:35:31.404Z,0.00
2023-03-11T04:36:31.347Z,0.00
2023-03-11T04:37:31.352Z,0.00
2023-03-11T04:38:31.387Z,0.00
2023-03-11T04:39:31.357Z,0.00
2023-03-11T04:40:31.335Z,0.00
2023-03-11T04:41:31.332Z,0.00
2023-03-11T04:42:31.283Z,0.00
2023-03-11T04:43:31.278Z,0.00
2023-03-11T04:44:31.274Z,0.00
2023-03-11T04:45:31.273Z,0.00
2023-03-11T04:46:31.331Z,0.00
2023-03-11T04:47:31.234Z,0.00
2023-03-11T04:48:31.230Z,0.00
2023-03-11T04:49:31.212Z,0.00
2023-03-11T04:50:31.215Z,0.00
2023-03-11T04:51:31.172Z,0.00
2023-03-11T04:52:31.184Z,0.00
2023-03-11T04:53:31.166Z,0.00
2023-03-11T04:54:31.156Z,0.00
2023-03-11T04:55:31.186Z,0.00
2023-03-11T04:56:31.141Z,0.00
2023-03-11T04:57:31.114Z,0.00
2023-03-11T04:58:31.116Z,0.00
2023-03-11T04:59:31.094Z,0.00
2023-03-11T05:00:31.112Z,0.00
2023-03-11T05:01:31.161Z,0.00
2023-03-11T05:02:31.079Z,0.00
2023-03-11T05:03:31.169Z,0.00
2023-03-11T05:04:31.114Z,0.00
2023-03-11T05:05:31.043Z,0.00
2023-03-11T05:06:31.070Z,0.00
2023-03-11T05:07:31.015Z,0.00
2023-03-11T05:08:31.034Z,0.00
2023-03-11T05:09:30.993Z,0.00
2023-03-11T05:10:32.127Z,0.00
2023-03-11T05:11:31.007Z,0.00
2023-03-11T05:12:30.984Z,0.00
2023-03-11T05:13:30.979Z,0.00
2023-03-11T05:14:30.973Z,0.00
2023-03-11T05:15:30.964Z,0.00
2023-03-11T05:16:30.979Z,0.00
2023-03-11T05:17:30.949Z,0.00
2023-03-11T05:18:30.912Z,0.00
2023-03-11T05:19:30.890Z,0.00
2023-03-11T05:20:30.897Z,0.00
2023-03-11T05:21:30.884Z,0.00
2023-03-11T05:22:30.905Z,0.00
2023-03-11T05:23:30.857Z,0.00
2023-03-11T05:24:30.845Z,0.00
2023-03-11T05:25:30.840Z,0.00
2023-03-11T05:26:30.809Z,1.00
2023-03-11T05:27:30.794Z,1.00
2023-03-11T05:28:30.779Z,1.00
2023-03-11T05:29:30.770Z,1.00
2023-03-11T05:30:30.770Z,2.00
2023-03-11T05:31:30.823Z,2.00
2023-03-11T05:32:30.766Z,1.00
2023-03-11T05:33:30.691Z,1.00
2023-03-11T05:34:30.685Z,2.00
2023-03-11T05:35:30.720Z,3.00
2023-03-11T05:36:30.700Z,5.00
2023-03-11T05:37:30.684Z,8.00
2023-03-11T05:38:30.650Z,5.00
2023-03-11T05:39:30.636Z,2.00
2023-03-11T05:40:30.624Z,9.00
2023-03-11T05:41:30.619Z,11.00
2023-03-11T05:42:30.634Z,10.00
2023-03-11T05:43:30.600Z,12.00
2023-03-11T05:44:30.612Z,16.00
2023-03-11T05:45:30.570Z,18.00
2023-03-11T05:46:30.595Z,23.00
2023-03-11T05:47:30.541Z,25.00
2023-03-11T05:48:30.578Z,33.00
2023-03-11T05:49:30.530Z,35.00
2023-03-11T05:50:30.536Z,41.00
2023-03-11T05:51:30.504Z,48.00
2023-03-11T05:52:30.537Z,52.00
2023-03-11T05:53:30.505Z,55.00
2023-03-11T05:54:30.497Z,63.00
2023-03-11T05:55:30.458Z,69.00
2023-03-11T05:56:30.527Z,78.00
2023-03-11T05:57:30.463Z,87.00
2023-03-11T05:58:30.514Z,94.00
2023-03-11T05:59:30.421Z,104.00
2023-03-11T06:00:30.442Z,110.00
2023-03-11T06:01:30.416Z,115.00
2023-03-11T06:02:30.545Z,124.00
2023-03-11T06:03:30.388Z,134.00
2023-03-11T06:04:30.481Z,151.00
2023-03-11T06:05:30.405Z,160.00
2023-03-11T06:06:30.365Z,172.00
2023-03-11T06:07:30.338Z,188.00
2023-03-11T06:08:30.331Z,189.00
2023-03-11T06:09:30.401Z,204.00
2023-03-11T06:10:30.336Z,218.00
2023-03-11T06:11:30.325Z,242.00
2023-03-11T06:12:30.331Z,253.00
2023-03-11T06:13:30.295Z,253.00
2023-03-11T06:14:30.303Z,294.00
2023-03-11T06:15:30.257Z,311.00
2023-03-11T06:16:30.311Z,329.00
2023-03-11T06:17:30.610Z,323.00
2023-03-11T06:18:30.268Z,372.00
2023-03-11T06:19:30.255Z,367.00
2023-03-11T06:20:30.238Z,395.00
2023-03-11T06:21:30.192Z,424.00
2023-03-11T06:22:30.208Z,421.00
2023-03-11T06:23:30.171Z,424.00
2023-03-11T06:24:30.184Z,441.00
2023-03-11T06:25:30.189Z,454.00
2023-03-11T06:26:30.214Z,460.00
2023-03-11T06:27:30.166Z,490.00
2023-03-11T06:28:30.145Z,514.00
2023-03-11T06:29:30.132Z,491.00
2023-03-11T06:30:30.149Z,511.00
2023-03-11T06:31:30.143Z,544.00
2023-03-11T06:32:30.120Z,562.00
2023-03-11T06:33:30.070Z,600.00
2023-03-11T06:34:30.068Z,642.00
2023-03-11T06:35:30.085Z,683.00
2023-03-11T06:36:30.060Z,691.00
2023-03-11T06:37:30.024Z,663.00
2023-03-11T06:38:30.070Z,658.00
2023-03-11T06:39:30.041Z,646.00
2023-03-11T06:40:30.044Z,638.00
2023-03-11T06:41:30.034Z,645.00
2023-03-11T06:42:29.994Z,643.00
2023-03-11T06:43:29.972Z,632.00
2023-03-11T06:44:29.996Z,624.00
2023-03-11T06:45:29.999Z,630.00
2023-03-11T06:46:29.981Z,620.00
2023-03-11T06:47:29.944Z,609.00
2023-03-11T06:48:29.928Z,625.00
2023-03-11T06:49:29.944Z,662.00
2023-03-11T06:50:29.954Z,696.00
2023-03-11T06:51:29.941Z,711.00
2023-03-11T06:52:29.889Z,718.00
2023-03-11T06:53:29.871Z,720.00
2023-03-11T06:54:29.893Z,731.00
2023-03-11T06:55:29.879Z,746.00
2023-03-11T06:56:29.853Z,783.00
2023-03-11T06:57:29.840Z,820.00
2023-03-11T06:58:29.860Z,831.00
2023-03-11T06:59:29.818Z,837.00
2023-03-11T07:00:29.838Z,841.00
2023-03-11T07:01:30.158Z,849.00
2023-03-11T07:02:29.784Z,856.00
2023-03-11T07:03:29.849Z,866.00
2023-03-11T07:04:29.765Z,872.00
2023-03-11T07:05:29.862Z,876.00
2023-03-11T07:06:30.198Z,860.00
2023-03-11T07:07:29.828Z,878.00
2023-03-11T07:09:55.685Z,933.00
2023-03-11T07:10:56.625Z,937.00
2023-03-11T07:11:56.625Z,945.00
2023-03-11T07:12:56.577Z,952.00
2023-03-11T07:13:56.592Z,959.00
2023-03-11T07:14:56.556Z,973.00
2023-03-11T07:15:56.609Z,988.00
2023-03-11T07:16:56.655Z,1001.00
2023-03-11T07:17:56.566Z,1012.00
2023-03-11T07:18:56.526Z,1004.00
2023-03-11T07:19:56.501Z,1001.00
2023-03-11T07:20:56.489Z,1009.00
2023-03-11T07:21:56.501Z,1020.00
2023-03-11T07:22:56.483Z,1032.00
2023-03-11T07:23:56.470Z,1036.00
2023-03-11T07:24:56.463Z,1055.00
2023-03-11T07:25:56.463Z,1072.00
2023-03-11T07:26:56.478Z,1093.00
2023-03-11T07:27:56.442Z,1107.00
2023-03-11T07:28:56.465Z,1122.00
2023-03-11T07:29:56.412Z,1135.00
2023-03-11T07:30:56.384Z,1148.00
2023-03-11T07:31:56.420Z,1162.00
2023-03-11T07:32:56.483Z,1175.00
2023-03-11T07:33:56.374Z,1176.00
2023-03-11T07:34:56.375Z,1182.00
2023-03-11T07:35:56.412Z,1187.00
2023-03-11T07:36:56.328Z,1196.00
2023-03-11T07:37:56.340Z,1208.00
2023-03-11T07:38:56.310Z,1222.00
2023-03-11T07:39:56.318Z,1233.00
2023-03-11T07:40:56.289Z,1246.00
2023-03-11T07:41:56.296Z,1247.00
2023-03-11T07:42:56.286Z,1248.00
2023-03-11T07:43:56.285Z,1251.00
2023-03-11T07:44:56.290Z,1259.00
2023-03-11T07:45:56.249Z,1264.00
2023-03-11T07:46:56.238Z,1274.00
2023-03-11T07:47:56.221Z,1281.00
2023-03-11T07:48:56.215Z,1288.00
2023-03-11T07:49:57.339Z,1296.00
2023-03-11T07:50:56.196Z,1305.00
2023-03-11T07:51:56.237Z,1314.00
2023-03-11T07:52:56.164Z,1331.00
2023-03-11T07:53:56.171Z,1339.00
2023-03-11T07:54:56.160Z,1351.00
2023-03-11T07:55:56.166Z,1363.00
2023-03-11T07:56:56.163Z,1374.00
2023-03-11T07:57:56.174Z,1388.00
2023-03-11T07:58:56.128Z,1401.00
2023-03-11T07:59:56.150Z,1414.00
2023-03-11T08:00:56.126Z,1426.00
2023-03-11T08:01:56.089Z,1434.00
2023-03-11T08:02:56.077Z,1443.00
2023-03-11T08:03:56.111Z,1450.00
2023-03-11T08:04:56.108Z,1463.00
2023-03-11T08:05:56.029Z,1473.00
2023-03-11T08:06:56.037Z,1482.00
2023-03-11T08:07:56.010Z,1496.00
2023-03-11T08:08:56.000Z,1508.00
2023-03-11T08:09:55.994Z,1487.00
2023-03-11T08:10:56.033Z,1501.00
2023-03-11T08:11:56.004Z,1543.00
2023-03-11T08:12:55.965Z,1555.00
2023-03-11T08:13:55.956Z,1563.00
2023-03-11T08:14:55.965Z,1574.00
2023-03-11T08:15:55.997Z,1588.00
2023-03-11T08:16:55.904Z,1600.00
2023-03-11T08:17:55.961Z,1609.00
2023-03-11T08:18:55.884Z,1617.00
2023-03-11T08:19:55.911Z,1623.00
2023-03-11T08:20:55.902Z,1604.00
2023-03-11T08:21:55.915Z,1615.00
2023-03-11T08:22:58.378Z,1660.00
2023-03-11T08:23:55.846Z,1667.00
2023-03-11T08:24:55.902Z,1677.00
2023-03-11T08:25:55.846Z,1688.00
2023-03-11T08:26:55.828Z,1701.00
2023-03-11T08:27:55.819Z,1709.00
2023-03-11T08:28:55.885Z,1712.00
2023-03-11T08:29:55.823Z,1718.00
2023-03-11T08:30:55.823Z,1727.00
2023-03-11T08:31:55.772Z,1736.00
2023-03-11T08:32:55.768Z,1746.00
2023-03-11T08:33:55.751Z,1757.00
2023-03-11T08:34:55.731Z,1763.00
2023-03-11T08:35:55.786Z,1761.00
2023-03-11T08:36:55.754Z,1753.00
2023-03-11T08:37:55.727Z,1739.00
2023-03-11T08:38:55.739Z,1784.00
2023-03-11T08:39:55.696Z,1767.00
2023-03-11T08:40:55.675Z,1758.00
2023-03-11T08:41:55.687Z,1784.00
2023-03-11T08:42:55.754Z,1817.00
2023-03-11T08:43:55.754Z,1819.00
2023-03-11T08:44:55.639Z,1850.00
2023-03-11T08:45:55.667Z,1769.00
2023-03-11T08:46:55.720Z,1850.00
2023-03-11T08:47:55.602Z,1859.00
2023-03-11T08:48:55.649Z,1865.00
2023-03-11T08:49:55.590Z,1878.00
2023-03-11T08:50:55.600Z,1883.00
2023-03-11T08:51:55.590Z,1889.00
2023-03-11T08:52:55.563Z,1897.00
2023-03-11T08:53:55.550Z,1910.00
2023-03-11T08:54:55.558Z,1921.00
2023-03-11T08:55:55.559Z,1924.00
2023-03-11T08:56:55.737Z,1933.00
2023-03-11T08:57:55.512Z,1944.00
2023-03-11T08:58:55.531Z,1962.00
2023-03-11T08:59:55.485Z,1964.00
2023-03-11T09:00:55.478Z,1960.00
2023-03-11T09:01:55.471Z,1956.00
2023-03-11T09:02:55.590Z,1967.00
2023-03-11T09:03:55.469Z,1967.00
2023-03-11T09:04:55.447Z,1983.00
2023-03-11T09:05:55.497Z,1999.00
2023-03-11T09:06:55.430Z,1944.00
2023-03-11T09:07:55.730Z,2004.00
2023-03-11T09:08:55.675Z,1990.00
2023-03-11T09:09:55.457Z,1983.00
2023-03-11T09:10:55.533Z,1987.00
2023-03-11T09:11:55.389Z,2007.00
2023-03-11T09:12:55.349Z,2027.00
2023-03-11T09:13:55.468Z,2023.00
2023-03-11T09:14:55.552Z,2032.00
2023-03-11T09:15:55.524Z,2012.00
2023-03-11T09:16:55.307Z,2044.00
2023-03-11T09:17:55.344Z,2053.00
2023-03-11T09:18:55.320Z,2057.00
2023-03-11T09:19:55.310Z,2067.00
2023-03-11T09:20:55.492Z,2065.00
2023-03-11T09:21:55.330Z,2077.00
2023-03-11T09:22:55.300Z,2075.00
2023-03-11T09:23:55.310Z,2084.00
2023-03-11T09:24:55.226Z,2085.00
2023-03-11T09:27:18.016Z,2119.00
2023-03-11T09:28:19.044Z,2111.00
2023-03-11T09:29:19.021Z,2119.00
2023-03-11T09:30:18.949Z,2119.00
2023-03-11T09:31:19.092Z,2136.00
2023-03-11T09:32:18.949Z,2122.00
2023-03-11T09:33:18.920Z,2128.00
2023-03-11T09:34:18.909Z,2139.00
2023-03-11T09:35:18.916Z,2144.00
2023-03-11T09:36:18.933Z,2159.00
2023-03-11T09:37:18.879Z,2170.00
2023-03-11T09:38:18.873Z,2182.00
2023-03-11T09:39:18.855Z,2186.00
2023-03-11T09:40:18.841Z,2179.00
2023-03-11T09:41:18.880Z,2180.00
2023-03-11T09:42:18.835Z,2186.00
2023-03-11T09:43:19.004Z,2175.00
2023-03-11T09:44:18.900Z,2184.00
2023-03-11T09:45:18.800Z,2189.00
2023-03-11T09:46:18.805Z,2198.00
2023-03-11T09:47:18.780Z,2213.00
2023-03-11T09:48:20.073Z,2216.00
2023-03-11T09:49:18.763Z,2225.00
2023-03-11T09:50:18.740Z,2226.00
2023-03-11T09:51:19.403Z,2229.00
2023-03-11T09:52:18.764Z,2237.00
2023-03-11T09:53:18.726Z,2228.00
2023-03-11T09:54:18.713Z,2216.00
2023-03-11T09:55:18.743Z,2212.00
2023-03-11T09:56:18.818Z,2243.00
2023-03-11T09:57:18.661Z,2182.00
2023-03-11T09:58:18.660Z,2225.00
2023-03-11T09:59:18.711Z,2222.00
2023-03-11T10:00:18.646Z,2216.00
2023-03-11T10:01:18.894Z,2225.00
2023-03-11T10:02:18.757Z,2208.00
2023-03-11T10:03:18.745Z,2205.00
2023-03-11T10:04:18.605Z,2211.00
2023-03-11T10:05:18.590Z,2207.00
2023-03-11T10:06:18.646Z,2214.00
2023-03-11T10:07:18.561Z,2218.00
2023-03-11T10:08:18.623Z,2229.00
2023-03-11T10:09:18.542Z,2198.00
2023-03-11T10:10:18.539Z,2188.00
2023-03-11T10:11:18.900Z,2218.00
2023-03-11T10:12:18.564Z,2193.00
2023-03-11T10:13:18.513Z,2230.00
2023-03-11T10:14:18.535Z,2243.00
2023-03-11T10:15:18.524Z,2217.00
2023-03-11T10:16:18.498Z,2252.00
2023-03-11T10:17:18.479Z,2243.00
2023-03-11T10:18:18.465Z,2183.00
2023-03-11T10:19:18.435Z,2212.00
2023-03-11T10:20:18.432Z,2201.00
2023-03-11T10:21:18.428Z,2193.00
2023-03-11T10:22:18.463Z,2217.00
2023-03-11T10:23:18.438Z,2211.00
2023-03-11T10:24:18.435Z,2189.00
2023-03-11T10:25:18.394Z,2191.00
2023-03-11T10:26:18.394Z,2198.00
2023-03-11T10:27:18.356Z,2195.00
2023-03-11T10:28:18.353Z,2207.00
2023-03-11T10:29:18.350Z,2209.00
2023-03-11T10:30:18.345Z,2202.00
2023-03-11T10:31:18.330Z,2167.00
2023-03-11T10:32:18.381Z,2189.00
2023-03-11T10:33:18.312Z,2178.00
2023-03-11T10:34:18.288Z,2220.00
2023-03-11T10:35:18.323Z,2217.00
2023-03-11T10:36:18.283Z,2196.00
2023-03-11T10:37:18.264Z,2193.00
2023-03-11T10:38:18.269Z,2210.00
2023-03-11T10:39:18.242Z,2196.00
2023-03-11T10:40:18.286Z,2214.00
2023-03-11T10:41:18.212Z,2191.00
2023-03-11T10:42:18.205Z,2194.00
2023-03-11T10:43:18.181Z,2185.00
2023-03-11T10:44:18.202Z,2200.00
2023-03-11T10:45:18.166Z,2252.00
2023-03-11T10:46:18.247Z,2114.00
2023-03-11T10:47:18.161Z,2234.00
2023-03-11T10:48:18.141Z,2264.00
2023-03-11T10:49:18.134Z,2281.00
2023-03-11T10:50:18.134Z,2342.00
2023-03-11T10:51:18.142Z,2440.00
2023-03-11T10:52:18.108Z,2158.00
2023-03-11T10:53:18.087Z,2452.00
2023-03-11T10:54:18.278Z,2711.00
2023-03-11T10:55:18.069Z,2397.00
2023-03-11T10:56:18.055Z,2432.00
2023-03-11T10:57:18.057Z,2389.00
2023-03-11T10:58:18.046Z,2353.00
2023-03-11T10:59:18.095Z,2486.00
2023-03-11T11:00:18.047Z,2408.00
2023-03-11T11:01:19.327Z,2259.00
2023-03-11T11:02:18.041Z,2236.00
2023-03-11T11:03:18.198Z,2422.00
2023-03-11T11:04:18.032Z,2554.00
2023-03-11T11:05:18.052Z,1076.00
2023-03-11T11:06:18.060Z,2214.00
2023-03-11T11:07:18.078Z,2395.00
2023-03-11T11:08:31.554Z,2163.00
2023-03-11T11:09:18.014Z,2199.00
2023-03-11T11:11:56.750Z,2162.00
2023-03-11T11:12:57.829Z,2201.00
2023-03-11T11:13:57.709Z,2168.00
2023-03-11T11:14:57.664Z,2160.00
2023-03-11T11:15:57.674Z,2398.00
2023-03-11T11:16:57.762Z,1933.00
2023-03-11T11:17:57.649Z,2317.00
2023-03-11T11:18:57.629Z,2161.00
2023-03-11T11:19:57.611Z,2160.00
2023-03-11T11:20:57.638Z,2178.00
2023-03-11T11:21:57.597Z,2148.00
2023-03-11T11:22:57.595Z,2207.00
2023-03-11T11:23:57.610Z,2243.00
2023-03-11T12:14:08.118Z,2071.00
2023-03-11T12:15:09.034Z,2059.00
2023-03-11T12:16:09.095Z,2083.00
2023-03-11T12:17:08.950Z,2017.00
2023-03-11T12:18:08.992Z,2100.00
2023-03-11T12:19:08.967Z,2200.00
2023-03-11T12:20:08.950Z,2207.00
2023-03-11T12:21:08.921Z,2060.00
2023-03-11T12:22:08.903Z,1982.00
2023-03-11T12:23:08.899Z,1963.00
2023-03-11T12:24:08.880Z,1854.00
2023-03-11T12:25:08.856Z,1854.00
2023-03-11T12:26:08.883Z,1830.00
2023-03-11T12:27:08.909Z,1917.00
2023-03-11T12:28:08.859Z,1807.00
2023-03-11T12:29:09.082Z,1999.00
2023-03-11T12:30:08.861Z,2033.00
2023-03-11T12:31:08.866Z,1572.00
2023-03-11T12:32:08.815Z,1874.00
2023-03-11T12:33:08.844Z,1977.00
2023-03-11T12:34:08.790Z,1643.00
2023-03-11T12:35:08.764Z,1815.00
2023-03-11T12:36:08.825Z,1915.00
2023-03-11T12:37:08.778Z,1847.00
2023-03-11T12:38:08.738Z,2084.00
2023-03-11T12:39:08.731Z,1933.00
2023-03-11T12:40:09.007Z,2324.00
2023-03-11T12:41:21.227Z,1812.00
2023-03-11T12:42:08.748Z,1638.00
2023-03-11T12:43:08.697Z,817.00
2023-03-11T12:44:08.699Z,1645.00
2023-03-11T12:45:08.706Z,1404.00
2023-03-11T12:46:08.679Z,1488.00
2023-03-11T12:47:08.649Z,1610.00
2023-03-11T12:48:08.690Z,1799.00
2023-03-11T12:49:08.616Z,1865.00
2023-03-11T12:50:08.716Z,1877.00
2023-03-11T12:51:08.607Z,1933.00
2023-03-11T12:52:08.585Z,1865.00
2023-03-11T12:53:08.602Z,1694.00
2023-03-11T12:54:08.574Z,1646.00
2023-03-11T12:55:08.549Z,1927.00
2023-03-11T12:56:08.558Z,1565.00
2023-03-11T12:57:08.577Z,1135.00
2023-03-11T12:58:08.547Z,1618.00
2023-03-11T12:59:08.511Z,1630.00
2023-03-11T13:00:08.532Z,2100.00
2023-03-11T13:01:08.486Z,1309.00
2023-03-11T13:02:08.509Z,1200.00
2023-03-11T13:03:08.557Z,1743.00
2023-03-11T13:04:08.491Z,1679.00
2023-03-11T13:05:08.500Z,1600.00
2023-03-11T13:06:08.483Z,1584.00
2023-03-11T13:07:08.434Z,1585.00
2023-03-11T13:08:08.444Z,1522.00
2023-03-11T13:09:08.432Z,1665.00
2023-03-11T13:10:08.532Z,1640.00
2023-03-11T13:11:08.400Z,1616.00
2023-03-11T13:12:08.403Z,1630.00
2023-03-11T13:13:08.372Z,1692.00
2023-03-11T13:14:08.413Z,1692.00
2023-03-11T13:15:08.350Z,1625.00
2023-03-11T13:16:08.425Z,1577.00
2023-03-11T13:17:08.327Z,1541.00
2023-03-11T13:18:08.344Z,1553.00
2023-03-11T13:19:08.356Z,1525.00
2023-03-11T13:20:08.343Z,1530.00
2023-03-11T13:21:08.334Z,1536.00
2023-03-11T13:22:08.324Z,1554.00
2023-03-11T13:23:08.291Z,1428.00
2023-03-11T13:24:08.290Z,1439.00
2023-03-11T13:25:08.261Z,1423.00
2023-03-11T13:26:08.280Z,1432.00
2023-03-11T13:27:08.241Z,1446.00
2023-03-11T13:28:08.237Z,1431.00
2023-03-11T13:29:08.402Z,1415.00
2023-03-11T13:30:08.237Z,1362.00
2023-03-11T13:31:08.271Z,1321.00
2023-03-11T13:32:08.215Z,1763.00
2023-03-11T13:33:08.172Z,1476.00
2023-03-11T13:34:08.198Z,563.00